sensor_id;sensor_type;location;lat;lon;timestamp;P1;durP1;ratioP1;P2;durP2;ratioP2
13443;SDS011;6794;59.218;18.218;2022-08-20T00:01:29;13.10;;;11.50;;
13443;SDS011;6794;59.218;18.218;2022-08-20T00:03:55;12.20;;;11.00;;
13443;SDS011;6794;59.218;18.218;2022-08-20T00:06:22;14.90;;;12.07;;
13443;SDS011;6794;59.218;18.218;2022-08-20T00:08:48;15.20;;;11.33;;
13443;SDS011;6794;59.218;18.218;2022-08-20T00:11:17;13.13;;;12.03;;
13443;SDS011;6794;59.218;18.218;2022-08-20T00:13:44;13.33;;;11.93;;
13443;SDS011;6794;59.218;18.218;2022-08-20T00:16:10;13.20;;;11.93;;
13443;SDS011;6794;59.218;18.218;2022-08-20T00:18:37;13.23;;;11.73;;
13443;SDS011;6794;59.218;18.218;2022-08-20T00:21:04;12.70;;;11.50;;
13443;SDS011;6794;59.218;18.218;2022-08-20T00:23:32;13.73;;;12.43;;
13443;SDS011;6794;59.218;18.218;2022-08-20T00:25:58;14.13;;;11.93;;
13443;SDS011;6794;59.218;18.218;2022-08-20T00:28:24;13.50;;;12.13;;
13443;SDS011;6794;59.218;18.218;2022-08-20T00:30:50;13.67;;;12.03;;
13443;SDS011;6794;59.218;18.218;2022-08-20T00:33:18;13.37;;;12.13;;
13443;SDS011;6794;59.218;18.218;2022-08-20T00:35:46;11.53;;;10.50;;
13443;SDS011;6794;59.218;18.218;2022-08-20T00:38:13;13.37;;;11.53;;
13443;SDS011;6794;59.218;18.218;2022-08-20T00:40:40;14.67;;;12.80;;
13443;SDS011;6794;59.218;18.218;2022-08-20T00:43:22;15.17;;;12.13;;
13443;SDS011;6794;59.218;18.218;2022-08-20T00:45:49;13.03;;;9.20;;
13443;SDS011;6794;59.218;18.218;2022-08-20T00:48:19;13.10;;;8.87;;
13443;SDS011;6794;59.218;18.218;2022-08-20T00:50:45;8.67;;;7.60;;
13443;SDS011;6794;59.218;18.218;2022-08-20T00:53:12;12.27;;;7.50;;
13443;SDS011;6794;59.218;18.218;2022-08-20T00:55:39;9.07;;;6.83;;
13443;SDS011;6794;59.218;18.218;2022-08-20T00:58:05;7.70;;;6.90;;
13443;SDS011;6794;59.218;18.218;2022-08-20T01:00:35;14.23;;;7.67;;
13443;SDS011;6794;59.218;18.218;2022-08-20T01:03:02;11.20;;;6.90;;
13443;SDS011;6794;59.218;18.218;2022-08-20T01:05:29;11.87;;;6.67;;
13443;SDS011;6794;59.218;18.218;2022-08-20T01:07:55;10.80;;;6.30;;
13443;SDS011;6794;59.218;18.218;2022-08-20T01:10:23;11.80;;;7.07;;
13443;SDS011;6794;59.218;18.218;2022-08-20T01:12:51;9.80;;;6.10;;
13443;SDS011;6794;59.218;18.218;2022-08-20T01:15:19;9.77;;;6.37;;
13443;SDS011;6794;59.218;18.218;2022-08-20T01:17:49;11.20;;;6.53;;
13443;SDS011;6794;59.218;18.218;2022-08-20T01:20:18;9.93;;;6.17;;
13443;SDS011;6794;59.218;18.218;2022-08-20T01:23:07;10.90;;;6.03;;
13443;SDS011;6794;59.218;18.218;2022-08-20T01:25:53;9.90;;;6.70;;
13443;SDS011;6794;59.218;18.218;2022-08-20T01:28:25;12.23;;;6.83;;
13443;SDS011;6794;59.218;18.218;2022-08-20T01:30:52;10.90;;;6.20;;
13443;SDS011;6794;59.218;18.218;2022-08-20T01:33:18;10.97;;;6.00;;
13443;SDS011;6794;59.218;18.218;2022-08-20T01:35:46;9.57;;;6.10;;
13443;SDS011;6794;59.218;18.218;2022-08-20T01:38:13;10.80;;;6.17;;
13443;SDS011;6794;59.218;18.218;2022-08-20T01:43:20;9.87;;;6.20;;
13443;SDS011;6794;59.218;18.218;2022-08-20T01:45:48;9.03;;;6.03;;
13443;SDS011;6794;59.218;18.218;2022-08-20T01:48:14;7.03;;;6.23;;
13443;SDS011;6794;59.218;18.218;2022-08-20T01:50:40;10.20;;;6.27;;
13443;SDS011;6794;59.218;18.218;2022-08-20T01:55:37;8.80;;;6.00;;
13443;SDS011;6794;59.218;18.218;2022-08-20T01:58:03;11.07;;;5.87;;
13443;SDS011;6794;59.218;18.218;2022-08-20T02:00:30;8.77;;;5.53;;
13443;SDS011;6794;59.218;18.218;2022-08-20T02:02:56;12.97;;;6.37;;
13443;SDS011;6794;59.218;18.218;2022-08-20T02:05:22;14.80;;;6.13;;
13443;SDS011;6794;59.218;18.218;2022-08-20T02:07:49;10.47;;;5.97;;
13443;SDS011;6794;59.218;18.218;2022-08-20T02:10:15;10.37;;;6.27;;
13443;SDS011;6794;59.218;18.218;2022-08-20T02:12:42;10.93;;;6.63;;
13443;SDS011;6794;59.218;18.218;2022-08-20T02:15:09;11.50;;;6.07;;
13443;SDS011;6794;59.218;18.218;2022-08-20T02:17:35;10.93;;;6.00;;
13443;SDS011;6794;59.218;18.218;2022-08-20T02:20:07;10.63;;;6.07;;
13443;SDS011;6794;59.218;18.218;2022-08-20T02:22:47;10.10;;;6.03;;
13443;SDS011;6794;59.218;18.218;2022-08-20T02:25:14;9.43;;;6.50;;
13443;SDS011;6794;59.218;18.218;2022-08-20T02:27:42;12.07;;;6.67;;
13443;SDS011;6794;59.218;18.218;2022-08-20T02:30:12;10.23;;;6.33;;
13443;SDS011;6794;59.218;18.218;2022-08-20T02:32:39;11.03;;;5.80;;
13443;SDS011;6794;59.218;18.218;2022-08-20T02:35:06;11.80;;;6.40;;
13443;SDS011;6794;59.218;18.218;2022-08-20T02:37:34;12.07;;;6.63;;
13443;SDS011;6794;59.218;18.218;2022-08-20T02:40:00;9.27;;;6.23;;
13443;SDS011;6794;59.218;18.218;2022-08-20T02:42:26;10.80;;;6.43;;
13443;SDS011;6794;59.218;18.218;2022-08-20T02:44:52;8.73;;;6.07;;
13443;SDS011;6794;59.218;18.218;2022-08-20T02:47:20;13.13;;;7.03;;
13443;SDS011;6794;59.218;18.218;2022-08-20T02:49:46;7.23;;;5.73;;
13443;SDS011;6794;59.218;18.218;2022-08-20T02:52:12;11.57;;;6.10;;
13443;SDS011;6794;59.218;18.218;2022-08-20T02:54:38;11.07;;;6.67;;
13443;SDS011;6794;59.218;18.218;2022-08-20T02:57:04;12.73;;;6.37;;
13443;SDS011;6794;59.218;18.218;2022-08-20T02:59:30;15.17;;;6.67;;
13443;SDS011;6794;59.218;18.218;2022-08-20T03:01:56;12.00;;;6.03;;
13443;SDS011;6794;59.218;18.218;2022-08-20T03:04:23;10.50;;;6.60;;
13443;SDS011;6794;59.218;18.218;2022-08-20T03:06:49;9.07;;;6.40;;
13443;SDS011;6794;59.218;18.218;2022-08-20T03:09:15;11.53;;;5.80;;
13443;SDS011;6794;59.218;18.218;2022-08-20T03:11:41;10.07;;;6.33;;
13443;SDS011;6794;59.218;18.218;2022-08-20T03:14:07;10.13;;;5.97;;
13443;SDS011;6794;59.218;18.218;2022-08-20T03:16:33;14.57;;;6.63;;
13443;SDS011;6794;59.218;18.218;2022-08-20T03:18:59;8.97;;;6.07;;
13443;SDS011;6794;59.218;18.218;2022-08-20T03:21:25;13.67;;;6.43;;
13443;SDS011;6794;59.218;18.218;2022-08-20T03:23:51;10.50;;;7.00;;
13443;SDS011;6794;59.218;18.218;2022-08-20T03:26:18;11.40;;;7.10;;
13443;SDS011;6794;59.218;18.218;2022-08-20T03:28:44;10.07;;;6.70;;
13443;SDS011;6794;59.218;18.218;2022-08-20T03:31:10;13.43;;;6.93;;
13443;SDS011;6794;59.218;18.218;2022-08-20T03:33:39;13.00;;;7.27;;
13443;SDS011;6794;59.218;18.218;2022-08-20T03:36:05;8.90;;;6.37;;
13443;SDS011;6794;59.218;18.218;2022-08-20T03:38:31;12.20;;;7.00;;
13443;SDS011;6794;59.218;18.218;2022-08-20T03:41:07;13.67;;;7.10;;
13443;SDS011;6794;59.218;18.218;2022-08-20T03:43:36;14.17;;;7.37;;
13443;SDS011;6794;59.218;18.218;2022-08-20T03:46:04;10.93;;;6.93;;
13443;SDS011;6794;59.218;18.218;2022-08-20T03:48:30;12.27;;;6.97;;
13443;SDS011;6794;59.218;18.218;2022-08-20T03:50:57;10.93;;;7.43;;
13443;SDS011;6794;59.218;18.218;2022-08-20T03:53:25;14.70;;;7.27;;
13443;SDS011;6794;59.218;18.218;2022-08-20T03:55:55;12.10;;;8.23;;
13443;SDS011;6794;59.218;18.218;2022-08-20T03:58:25;15.47;;;8.33;;
13443;SDS011;6794;59.218;18.218;2022-08-20T04:00:52;12.90;;;8.23;;
13443;SDS011;6794;59.218;18.218;2022-08-20T04:03:19;15.57;;;8.30;;
13443;SDS011;6794;59.218;18.218;2022-08-20T04:05:46;11.37;;;8.70;;
13443;SDS011;6794;59.218;18.218;2022-08-20T04:08:14;13.53;;;8.67;;
13443;SDS011;6794;59.218;18.218;2022-08-20T04:10:41;13.93;;;9.03;;
13443;SDS011;6794;59.218;18.218;2022-08-20T04:13:09;11.30;;;8.60;;
13443;SDS011;6794;59.218;18.218;2022-08-20T04:15:35;13.60;;;8.93;;
13443;SDS011;6794;59.218;18.218;2022-08-20T04:18:02;14.33;;;8.80;;
13443;SDS011;6794;59.218;18.218;2022-08-20T04:20:30;13.97;;;9.23;;
13443;SDS011;6794;59.218;18.218;2022-08-20T04:22:56;14.17;;;8.93;;
13443;SDS011;6794;59.218;18.218;2022-08-20T04:25:22;13.20;;;8.77;;
13443;SDS011;6794;59.218;18.218;2022-08-20T04:27:49;11.80;;;8.90;;
13443;SDS011;6794;59.218;18.218;2022-08-20T04:30:15;14.97;;;10.37;;
13443;SDS011;6794;59.218;18.218;2022-08-20T04:32:42;14.40;;;10.50;;
13443;SDS011;6794;59.218;18.218;2022-08-20T04:35:10;15.93;;;9.97;;
13443;SDS011;6794;59.218;18.218;2022-08-20T04:37:37;19.30;;;10.03;;
13443;SDS011;6794;59.218;18.218;2022-08-20T04:40:04;13.20;;;9.83;;
13443;SDS011;6794;59.218;18.218;2022-08-20T04:42:50;19.07;;;10.70;;
13443;SDS011;6794;59.218;18.218;2022-08-20T04:45:16;14.63;;;10.17;;
13443;SDS011;6794;59.218;18.218;2022-08-20T04:47:42;17.13;;;10.30;;
13443;SDS011;6794;59.218;18.218;2022-08-20T04:50:10;12.83;;;9.67;;
13443;SDS011;6794;59.218;18.218;2022-08-20T04:52:36;16.83;;;12.27;;
13443;SDS011;6794;59.218;18.218;2022-08-20T04:55:03;15.37;;;10.13;;
13443;SDS011;6794;59.218;18.218;2022-08-20T04:57:29;14.03;;;11.10;;
13443;SDS011;6794;59.218;18.218;2022-08-20T04:59:55;12.37;;;9.47;;
13443;SDS011;6794;59.218;18.218;2022-08-20T05:02:21;15.67;;;10.50;;
13443;SDS011;6794;59.218;18.218;2022-08-20T05:04:47;13.33;;;10.50;;
13443;SDS011;6794;59.218;18.218;2022-08-20T05:07:14;16.48;;;12.10;;
13443;SDS011;6794;59.218;18.218;2022-08-20T05:09:42;17.23;;;10.87;;
13443;SDS011;6794;59.218;18.218;2022-08-20T05:12:09;18.02;;;12.23;;
13443;SDS011;6794;59.218;18.218;2022-08-20T05:14:36;18.80;;;11.10;;
13443;SDS011;6794;59.218;18.218;2022-08-20T05:17:02;16.08;;;12.52;;
13443;SDS011;6794;59.218;18.218;2022-08-20T05:19:29;18.73;;;11.20;;
13443;SDS011;6794;59.218;18.218;2022-08-20T05:21:55;16.37;;;10.70;;
13443;SDS011;6794;59.218;18.218;2022-08-20T05:24:22;16.67;;;12.10;;
13443;SDS011;6794;59.218;18.218;2022-08-20T05:26:48;14.20;;;11.65;;
13443;SDS011;6794;59.218;18.218;2022-08-20T05:29:14;13.13;;;11.10;;
13443;SDS011;6794;59.218;18.218;2022-08-20T05:31:40;16.80;;;13.63;;
13443;SDS011;6794;59.218;18.218;2022-08-20T05:34:07;14.65;;;12.48;;
13443;SDS011;6794;59.218;18.218;2022-08-20T05:36:34;14.30;;;10.40;;
13443;SDS011;6794;59.218;18.218;2022-08-20T05:39:00;18.15;;;13.40;;
13443;SDS011;6794;59.218;18.218;2022-08-20T05:41:27;12.57;;;9.50;;
13443;SDS011;6794;59.218;18.218;2022-08-20T05:43:53;14.80;;;9.97;;
13443;SDS011;6794;59.218;18.218;2022-08-20T05:46:20;14.20;;;10.63;;
13443;SDS011;6794;59.218;18.218;2022-08-20T05:48:46;13.53;;;9.30;;
13443;SDS011;6794;59.218;18.218;2022-08-20T05:51:12;16.35;;;11.93;;
13443;SDS011;6794;59.218;18.218;2022-08-20T05:53:39;11.17;;;9.57;;
13443;SDS011;6794;59.218;18.218;2022-08-20T05:56:05;15.73;;;10.93;;
13443;SDS011;6794;59.218;18.218;2022-08-20T05:58:35;16.93;;;11.17;;
13443;SDS011;6794;59.218;18.218;2022-08-20T06:01:01;14.97;;;10.37;;
13443;SDS011;6794;59.218;18.218;2022-08-20T06:03:27;15.37;;;10.50;;
13443;SDS011;6794;59.218;18.218;2022-08-20T06:06:12;16.97;;;10.97;;
13443;SDS011;6794;59.218;18.218;2022-08-20T06:08:38;14.97;;;10.37;;
13443;SDS011;6794;59.218;18.218;2022-08-20T06:11:05;14.50;;;9.97;;
13443;SDS011;6794;59.218;18.218;2022-08-20T06:13:31;15.48;;;11.02;;
13443;SDS011;6794;59.218;18.218;2022-08-20T06:15:57;15.13;;;10.63;;
13443;SDS011;6794;59.218;18.218;2022-08-20T06:18:24;15.17;;;10.27;;
13443;SDS011;6794;59.218;18.218;2022-08-20T06:20:50;13.57;;;9.57;;
13443;SDS011;6794;59.218;18.218;2022-08-20T06:23:16;15.23;;;10.60;;
13443;SDS011;6794;59.218;18.218;2022-08-20T06:25:42;13.67;;;9.90;;
13443;SDS011;6794;59.218;18.218;2022-08-20T06:28:08;12.53;;;9.53;;
13443;SDS011;6794;59.218;18.218;2022-08-20T06:30:34;16.93;;;9.97;;
13443;SDS011;6794;59.218;18.218;2022-08-20T06:33:00;14.40;;;10.13;;
13443;SDS011;6794;59.218;18.218;2022-08-20T06:35:27;15.43;;;10.77;;
13443;SDS011;6794;59.218;18.218;2022-08-20T06:37:53;16.43;;;10.07;;
13443;SDS011;6794;59.218;18.218;2022-08-20T06:40:22;16.00;;;8.93;;
13443;SDS011;6794;59.218;18.218;2022-08-20T06:42:49;16.40;;;9.53;;
13443;SDS011;6794;59.218;18.218;2022-08-20T06:45:17;13.03;;;9.63;;
13443;SDS011;6794;59.218;18.218;2022-08-20T06:47:44;16.43;;;9.77;;
13443;SDS011;6794;59.218;18.218;2022-08-20T06:50:13;15.50;;;10.07;;
13443;SDS011;6794;59.218;18.218;2022-08-20T06:52:39;13.90;;;9.17;;
13443;SDS011;6794;59.218;18.218;2022-08-20T06:55:06;18.53;;;10.03;;
13443;SDS011;6794;59.218;18.218;2022-08-20T06:57:34;13.00;;;9.20;;
13443;SDS011;6794;59.218;18.218;2022-08-20T07:00:00;13.37;;;9.17;;
13443;SDS011;6794;59.218;18.218;2022-08-20T07:02:26;14.10;;;8.67;;
13443;SDS011;6794;59.218;18.218;2022-08-20T07:04:52;15.27;;;9.00;;
13443;SDS011;6794;59.218;18.218;2022-08-20T07:07:19;15.17;;;8.80;;
13443;SDS011;6794;59.218;18.218;2022-08-20T07:09:45;13.97;;;9.10;;
13443;SDS011;6794;59.218;18.218;2022-08-20T07:12:12;13.00;;;8.83;;
13443;SDS011;6794;59.218;18.218;2022-08-20T07:14:38;14.43;;;9.10;;
13443;SDS011;6794;59.218;18.218;2022-08-20T07:17:04;13.97;;;9.40;;
13443;SDS011;6794;59.218;18.218;2022-08-20T07:19:30;17.07;;;9.50;;
13443;SDS011;6794;59.218;18.218;2022-08-20T07:21:57;15.03;;;9.93;;
13443;SDS011;6794;59.218;18.218;2022-08-20T07:24:23;12.73;;;9.80;;
13443;SDS011;6794;59.218;18.218;2022-08-20T07:26:49;14.50;;;9.80;;
13443;SDS011;6794;59.218;18.218;2022-08-20T07:29:16;14.97;;;9.03;;
13443;SDS011;6794;59.218;18.218;2022-08-20T07:31:42;13.13;;;9.23;;
13443;SDS011;6794;59.218;18.218;2022-08-20T07:34:27;14.83;;;9.17;;
13443;SDS011;6794;59.218;18.218;2022-08-20T07:36:57;13.60;;;9.50;;
13443;SDS011;6794;59.218;18.218;2022-08-20T07:39:24;14.27;;;9.40;;
13443;SDS011;6794;59.218;18.218;2022-08-20T07:41:50;14.53;;;9.23;;
13443;SDS011;6794;59.218;18.218;2022-08-20T07:44:27;11.47;;;9.77;;
13443;SDS011;6794;59.218;18.218;2022-08-20T07:46:54;11.93;;;9.63;;
13443;SDS011;6794;59.218;18.218;2022-08-20T07:49:20;14.63;;;9.70;;
13443;SDS011;6794;59.218;18.218;2022-08-20T07:51:46;11.90;;;8.80;;
13443;SDS011;6794;59.218;18.218;2022-08-20T07:54:12;16.33;;;9.37;;
13443;SDS011;6794;59.218;18.218;2022-08-20T07:56:38;13.67;;;9.60;;
13443;SDS011;6794;59.218;18.218;2022-08-20T07:59:04;12.43;;;8.63;;
13443;SDS011;6794;59.218;18.218;2022-08-20T08:01:30;14.60;;;8.93;;
13443;SDS011;6794;59.218;18.218;2022-08-20T08:03:57;13.27;;;9.23;;
13443;SDS011;6794;59.218;18.218;2022-08-20T08:06:24;12.00;;;8.97;;
13443;SDS011;6794;59.218;18.218;2022-08-20T08:08:51;14.43;;;8.33;;
13443;SDS011;6794;59.218;18.218;2022-08-20T08:11:17;13.13;;;8.10;;
13443;SDS011;6794;59.218;18.218;2022-08-20T08:13:43;11.80;;;9.00;;
13443;SDS011;6794;59.218;18.218;2022-08-20T08:16:10;13.27;;;8.30;;
13443;SDS011;6794;59.218;18.218;2022-08-20T08:18:40;15.23;;;8.70;;
13443;SDS011;6794;59.218;18.218;2022-08-20T08:21:08;11.47;;;8.73;;
13443;SDS011;6794;59.218;18.218;2022-08-20T08:23:39;12.73;;;9.10;;
13443;SDS011;6794;59.218;18.218;2022-08-20T08:26:12;14.13;;;9.83;;
13443;SDS011;6794;59.218;18.218;2022-08-20T08:28:39;12.07;;;8.37;;
13443;SDS011;6794;59.218;18.218;2022-08-20T08:31:05;12.70;;;8.63;;
13443;SDS011;6794;59.218;18.218;2022-08-20T08:33:32;11.93;;;8.70;;
13443;SDS011;6794;59.218;18.218;2022-08-20T08:38:25;11.97;;;9.33;;
13443;SDS011;6794;59.218;18.218;2022-08-20T08:40:53;14.93;;;9.07;;
13443;SDS011;6794;59.218;18.218;2022-08-20T08:43:24;17.23;;;8.73;;
13443;SDS011;6794;59.218;18.218;2022-08-20T08:45:55;15.07;;;9.60;;
13443;SDS011;6794;59.218;18.218;2022-08-20T08:48:23;14.33;;;9.37;;
13443;SDS011;6794;59.218;18.218;2022-08-20T08:50:52;16.00;;;10.37;;
13443;SDS011;6794;59.218;18.218;2022-08-20T08:53:24;14.50;;;8.83;;
13443;SDS011;6794;59.218;18.218;2022-08-20T08:55:50;14.27;;;9.60;;
13443;SDS011;6794;59.218;18.218;2022-08-20T08:58:16;16.63;;;9.90;;
13443;SDS011;6794;59.218;18.218;2022-08-20T09:00:43;13.23;;;10.00;;
13443;SDS011;6794;59.218;18.218;2022-08-20T09:03:13;14.43;;;9.80;;
13443;SDS011;6794;59.218;18.218;2022-08-20T09:05:48;16.20;;;10.10;;
13443;SDS011;6794;59.218;18.218;2022-08-20T09:08:16;16.93;;;9.87;;
13443;SDS011;6794;59.218;18.218;2022-08-20T09:10:44;14.63;;;10.53;;
13443;SDS011;6794;59.218;18.218;2022-08-20T09:13:10;14.93;;;10.33;;
13443;SDS011;6794;59.218;18.218;2022-08-20T09:15:36;16.67;;;10.30;;
13443;SDS011;6794;59.218;18.218;2022-08-20T09:18:02;13.57;;;9.80;;
13443;SDS011;6794;59.218;18.218;2022-08-20T09:20:28;11.83;;;9.70;;
13443;SDS011;6794;59.218;18.218;2022-08-20T09:22:55;18.30;;;10.73;;
13443;SDS011;6794;59.218;18.218;2022-08-20T09:25:21;17.90;;;10.37;;
13443;SDS011;6794;59.218;18.218;2022-08-20T09:27:47;17.53;;;10.40;;
13443;SDS011;6794;59.218;18.218;2022-08-20T09:30:14;16.60;;;10.33;;
13443;SDS011;6794;59.218;18.218;2022-08-20T09:32:40;14.77;;;9.80;;
13443;SDS011;6794;59.218;18.218;2022-08-20T09:35:06;15.63;;;9.97;;
13443;SDS011;6794;59.218;18.218;2022-08-20T09:37:33;18.17;;;11.23;;
13443;SDS011;6794;59.218;18.218;2022-08-20T09:39:59;18.37;;;10.80;;
13443;SDS011;6794;59.218;18.218;2022-08-20T09:42:29;18.63;;;10.67;;
13443;SDS011;6794;59.218;18.218;2022-08-20T09:44:56;16.77;;;10.33;;
13443;SDS011;6794;59.218;18.218;2022-08-20T09:47:22;18.63;;;10.80;;
13443;SDS011;6794;59.218;18.218;2022-08-20T09:49:48;16.43;;;10.80;;
13443;SDS011;6794;59.218;18.218;2022-08-20T09:52:24;17.17;;;9.50;;
13443;SDS011;6794;59.218;18.218;2022-08-20T09:54:51;15.43;;;10.43;;
13443;SDS011;6794;59.218;18.218;2022-08-20T09:57:19;15.93;;;10.53;;
13443;SDS011;6794;59.218;18.218;2022-08-20T09:59:47;16.37;;;11.47;;
13443;SDS011;6794;59.218;18.218;2022-08-20T10:02:14;15.87;;;10.50;;
13443;SDS011;6794;59.218;18.218;2022-08-20T10:04:40;19.40;;;11.00;;
13443;SDS011;6794;59.218;18.218;2022-08-20T10:07:07;15.27;;;10.97;;
13443;SDS011;6794;59.218;18.218;2022-08-20T10:09:33;16.33;;;11.33;;
13443;SDS011;6794;59.218;18.218;2022-08-20T10:12:00;16.00;;;11.07;;
13443;SDS011;6794;59.218;18.218;2022-08-20T10:14:26;17.30;;;11.10;;
13443;SDS011;6794;59.218;18.218;2022-08-20T10:16:55;15.27;;;11.63;;
13443;SDS011;6794;59.218;18.218;2022-08-20T10:19:21;19.57;;;12.57;;
13443;SDS011;6794;59.218;18.218;2022-08-20T10:21:49;16.23;;;11.97;;
13443;SDS011;6794;59.218;18.218;2022-08-20T10:24:16;18.13;;;12.70;;
13443;SDS011;6794;59.218;18.218;2022-08-20T10:26:42;20.60;;;13.57;;
13443;SDS011;6794;59.218;18.218;2022-08-20T10:29:08;15.93;;;11.43;;
13443;SDS011;6794;59.218;18.218;2022-08-20T10:31:34;19.30;;;12.47;;
13443;SDS011;6794;59.218;18.218;2022-08-20T10:34:00;19.20;;;11.77;;
13443;SDS011;6794;59.218;18.218;2022-08-20T10:36:27;19.63;;;12.77;;
13443;SDS011;6794;59.218;18.218;2022-08-20T10:38:53;18.50;;;11.63;;
13443;SDS011;6794;59.218;18.218;2022-08-20T10:41:19;25.53;;;12.13;;
13443;SDS011;6794;59.218;18.218;2022-08-20T10:43:46;21.30;;;12.57;;
13443;SDS011;6794;59.218;18.218;2022-08-20T10:46:12;17.23;;;12.23;;
13443;SDS011;6794;59.218;18.218;2022-08-20T10:48:38;18.27;;;13.17;;
13443;SDS011;6794;59.218;18.218;2022-08-20T10:51:05;24.23;;;12.83;;
13443;SDS011;6794;59.218;18.218;2022-08-20T10:53:31;20.87;;;12.57;;
13443;SDS011;6794;59.218;18.218;2022-08-20T10:55:57;18.33;;;13.30;;
13443;SDS011;6794;59.218;18.218;2022-08-20T10:58:23;19.33;;;12.47;;
13443;SDS011;6794;59.218;18.218;2022-08-20T11:00:49;21.53;;;12.47;;
13443;SDS011;6794;59.218;18.218;2022-08-20T11:03:16;21.20;;;12.23;;
13443;SDS011;6794;59.218;18.218;2022-08-20T11:05:42;17.80;;;11.97;;
13443;SDS011;6794;59.218;18.218;2022-08-20T11:08:08;23.97;;;12.67;;
13443;SDS011;6794;59.218;18.218;2022-08-20T11:10:34;20.83;;;11.63;;
13443;SDS011;6794;59.218;18.218;2022-08-20T11:13:01;23.27;;;11.67;;
13443;SDS011;6794;59.218;18.218;2022-08-20T11:15:27;19.20;;;11.47;;
13443;SDS011;6794;59.218;18.218;2022-08-20T11:17:53;18.60;;;11.57;;
13443;SDS011;6794;59.218;18.218;2022-08-20T11:20:20;19.57;;;11.17;;
13443;SDS011;6794;59.218;18.218;2022-08-20T11:22:49;20.37;;;11.87;;
13443;SDS011;6794;59.218;18.218;2022-08-20T11:25:15;19.43;;;11.77;;
13443;SDS011;6794;59.218;18.218;2022-08-20T11:27:42;17.53;;;11.80;;
13443;SDS011;6794;59.218;18.218;2022-08-20T11:30:10;19.70;;;11.67;;
13443;SDS011;6794;59.218;18.218;2022-08-20T11:32:37;18.17;;;11.70;;
13443;SDS011;6794;59.218;18.218;2022-08-20T11:35:04;15.73;;;11.17;;
13443;SDS011;6794;59.218;18.218;2022-08-20T11:37:30;20.43;;;11.77;;
13443;SDS011;6794;59.218;18.218;2022-08-20T11:39:57;19.13;;;11.27;;
13443;SDS011;6794;59.218;18.218;2022-08-20T11:42:23;19.90;;;11.87;;
13443;SDS011;6794;59.218;18.218;2022-08-20T11:44:49;20.17;;;12.23;;
13443;SDS011;6794;59.218;18.218;2022-08-20T11:47:22;17.87;;;12.03;;
13443;SDS011;6794;59.218;18.218;2022-08-20T11:49:55;24.47;;;13.37;;
13443;SDS011;6794;59.218;18.218;2022-08-20T11:52:21;15.50;;;11.53;;
13443;SDS011;6794;59.218;18.218;2022-08-20T11:54:47;22.40;;;12.03;;
13443;SDS011;6794;59.218;18.218;2022-08-20T11:57:18;23.20;;;13.50;;
13443;SDS011;6794;59.218;18.218;2022-08-20T11:59:47;25.23;;;12.50;;
13443;SDS011;6794;59.218;18.218;2022-08-20T12:02:13;20.50;;;13.33;;
13443;SDS011;6794;59.218;18.218;2022-08-20T12:04:39;21.37;;;12.00;;
13443;SDS011;6794;59.218;18.218;2022-08-20T12:07:11;20.37;;;12.00;;
13443;SDS011;6794;59.218;18.218;2022-08-20T12:09:38;22.00;;;13.30;;
13443;SDS011;6794;59.218;18.218;2022-08-20T12:12:04;19.50;;;12.10;;
13443;SDS011;6794;59.218;18.218;2022-08-20T12:14:30;22.10;;;12.73;;
13443;SDS011;6794;59.218;18.218;2022-08-20T12:16:56;26.47;;;13.53;;
13443;SDS011;6794;59.218;18.218;2022-08-20T12:19:22;19.50;;;13.07;;
13443;SDS011;6794;59.218;18.218;2022-08-20T12:21:49;24.00;;;13.83;;
13443;SDS011;6794;59.218;18.218;2022-08-20T12:24:15;20.90;;;13.53;;
13443;SDS011;6794;59.218;18.218;2022-08-20T12:26:41;21.60;;;13.33;;
13443;SDS011;6794;59.218;18.218;2022-08-20T12:29:07;20.73;;;13.00;;
13443;SDS011;6794;59.218;18.218;2022-08-20T12:31:33;20.53;;;12.93;;
13443;SDS011;6794;59.218;18.218;2022-08-20T12:33:59;21.70;;;13.90;;
13443;SDS011;6794;59.218;18.218;2022-08-20T12:36:26;18.33;;;13.47;;
13443;SDS011;6794;59.218;18.218;2022-08-20T12:38:52;25.33;;;12.90;;
13443;SDS011;6794;59.218;18.218;2022-08-20T12:41:18;21.20;;;12.13;;
13443;SDS011;6794;59.218;18.218;2022-08-20T12:43:44;22.13;;;12.77;;
13443;SDS011;6794;59.218;18.218;2022-08-20T12:46:10;16.83;;;12.60;;
13443;SDS011;6794;59.218;18.218;2022-08-20T12:48:36;20.03;;;13.37;;
13443;SDS011;6794;59.218;18.218;2022-08-20T12:51:02;16.83;;;12.60;;
13443;SDS011;6794;59.218;18.218;2022-08-20T12:53:28;22.93;;;13.07;;
13443;SDS011;6794;59.218;18.218;2022-08-20T12:55:54;19.87;;;12.47;;
13443;SDS011;6794;59.218;18.218;2022-08-20T12:58:20;21.10;;;12.50;;
13443;SDS011;6794;59.218;18.218;2022-08-20T13:00:46;18.00;;;12.30;;
13443;SDS011;6794;59.218;18.218;2022-08-20T13:03:12;22.50;;;13.50;;
13443;SDS011;6794;59.218;18.218;2022-08-20T13:05:39;20.30;;;13.60;;
13443;SDS011;6794;59.218;18.218;2022-08-20T13:08:06;16.60;;;12.20;;
13443;SDS011;6794;59.218;18.218;2022-08-20T13:10:33;21.43;;;13.30;;
13443;SDS011;6794;59.218;18.218;2022-08-20T13:12:59;17.80;;;11.90;;
13443;SDS011;6794;59.218;18.218;2022-08-20T13:15:27;18.03;;;12.47;;
13443;SDS011;6794;59.218;18.218;2022-08-20T13:17:54;16.73;;;12.00;;
13443;SDS011;6794;59.218;18.218;2022-08-20T13:20:20;19.47;;;11.87;;
13443;SDS011;6794;59.218;18.218;2022-08-20T13:22:49;16.27;;;11.37;;
13443;SDS011;6794;59.218;18.218;2022-08-20T13:25:15;20.53;;;11.77;;
13443;SDS011;6794;59.218;18.218;2022-08-20T13:27:42;18.53;;;11.20;;
13443;SDS011;6794;59.218;18.218;2022-08-20T13:30:10;15.47;;;11.83;;
13443;SDS011;6794;59.218;18.218;2022-08-20T13:32:37;17.77;;;10.67;;
13443;SDS011;6794;59.218;18.218;2022-08-20T13:35:03;15.07;;;11.47;;
13443;SDS011;6794;59.218;18.218;2022-08-20T13:37:29;14.10;;;11.33;;
13443;SDS011;6794;59.218;18.218;2022-08-20T13:39:56;14.47;;;11.00;;
13443;SDS011;6794;59.218;18.218;2022-08-20T13:42:22;14.20;;;10.47;;
13443;SDS011;6794;59.218;18.218;2022-08-20T13:44:48;12.33;;;10.07;;
13443;SDS011;6794;59.218;18.218;2022-08-20T13:47:19;15.30;;;10.83;;
13443;SDS011;6794;59.218;18.218;2022-08-20T13:49:45;16.67;;;10.13;;
13443;SDS011;6794;59.218;18.218;2022-08-20T13:52:12;13.07;;;9.20;;
13443;SDS011;6794;59.218;18.218;2022-08-20T13:54:38;16.03;;;9.73;;
13443;SDS011;6794;59.218;18.218;2022-08-20T13:57:08;13.05;;;10.65;;
13443;SDS011;6794;59.218;18.218;2022-08-20T13:59:38;13.07;;;9.20;;
13443;SDS011;6794;59.218;18.218;2022-08-20T14:02:05;14.07;;;9.60;;
13443;SDS011;6794;59.218;18.218;2022-08-20T14:04:31;14.00;;;9.00;;
13443;SDS011;6794;59.218;18.218;2022-08-20T14:06:57;13.73;;;9.03;;
13443;SDS011;6794;59.218;18.218;2022-08-20T14:09:23;13.90;;;8.60;;
13443;SDS011;6794;59.218;18.218;2022-08-20T14:11:49;12.90;;;8.70;;
13443;SDS011;6794;59.218;18.218;2022-08-20T14:14:15;11.00;;;8.23;;
13443;SDS011;6794;59.218;18.218;2022-08-20T14:16:41;11.07;;;9.13;;
13443;SDS011;6794;59.218;18.218;2022-08-20T14:19:07;11.37;;;8.83;;
13443;SDS011;6794;59.218;18.218;2022-08-20T14:21:33;14.93;;;8.57;;
13443;SDS011;6794;59.218;18.218;2022-08-20T14:23:59;14.77;;;9.53;;
13443;SDS011;6794;59.218;18.218;2022-08-20T14:26:26;14.80;;;8.60;;
13443;SDS011;6794;59.218;18.218;2022-08-20T14:28:52;12.27;;;8.67;;
13443;SDS011;6794;59.218;18.218;2022-08-20T14:31:18;10.87;;;8.37;;
13443;SDS011;6794;59.218;18.218;2022-08-20T14:33:44;12.23;;;8.17;;
13443;SDS011;6794;59.218;18.218;2022-08-20T14:36:10;15.93;;;8.67;;